createdAt,value
2022-08-07T00:01:12.602Z,2.20
2022-08-07T00:03:53.237Z,2.40
2022-08-07T00:06:29.538Z,2.58
2022-08-07T00:09:16.149Z,1.95
2022-08-07T00:11:54.115Z,2.20
2022-08-07T00:14:25.510Z,2.95
2022-08-07T00:16:57.431Z,2.92
2022-08-07T00:19:34.199Z,3.20
2022-08-07T00:22:10.986Z,1.85
2022-08-07T00:24:38.832Z,3.27
2022-08-07T00:27:07.754Z,2.20
2022-08-07T00:29:37.001Z,2.10
2022-08-07T00:32:05.871Z,2.28
2022-08-07T00:34:35.616Z,2.42
2022-08-07T00:37:05.102Z,2.23
2022-08-07T00:39:33.016Z,1.95
2022-08-07T00:42:04.836Z,3.53
2022-08-07T00:44:33.560Z,2.38
2022-08-07T00:47:01.735Z,2.38
2022-08-07T00:50:19.154Z,1.70
2022-08-07T00:52:17.788Z,2.13
2022-08-07T00:54:53.651Z,2.13
2022-08-07T00:57:23.209Z,2.30
2022-08-07T00:59:53.806Z,2.33
2022-08-07T01:02:28.638Z,1.87
2022-08-07T01:04:58.669Z,2.40
2022-08-07T01:07:27.531Z,1.77
2022-08-07T01:10:06.423Z,2.65
2022-08-07T01:12:53.526Z,1.65
2022-08-07T01:15:23.313Z,1.83
2022-08-07T01:18:10.238Z,1.75
2022-08-07T01:20:45.039Z,1.88
2022-08-07T01:23:34.722Z,1.48
2022-08-07T01:26:07.951Z,2.60
2022-08-07T01:28:46.290Z,2.30
2022-08-07T01:31:17.916Z,1.40
2022-08-07T01:33:55.429Z,1.63
2022-08-07T01:36:33.425Z,1.55
2022-08-07T01:39:01.288Z,1.38
2022-08-07T01:41:31.341Z,1.87
2022-08-07T01:43:59.424Z,1.60
2022-08-07T01:46:28.583Z,2.05
2022-08-07T01:48:59.933Z,1.67
2022-08-07T01:52:01.786Z,1.60
2022-08-07T01:54:32.608Z,1.73
2022-08-07T01:57:08.501Z,2.25
2022-08-07T01:59:52.095Z,1.40
2022-08-07T02:03:11.371Z,2.35
2022-08-07T02:05:48.407Z,1.73
2022-08-07T02:08:27.751Z,2.23
2022-08-07T02:10:58.182Z,2.65
2022-08-07T02:13:56.404Z,2.17
2022-08-07T02:16:15.000Z,1.95
2022-08-07T02:18:47.291Z,1.63
2022-08-07T02:21:17.039Z,2.77
2022-08-07T02:23:46.076Z,1.50
2022-08-07T02:26:33.951Z,1.23
2022-08-07T02:29:04.933Z,1.85
2022-08-07T02:31:32.920Z,1.15
2022-08-07T02:34:03.612Z,2.00
2022-08-07T02:36:33.291Z,1.58
2022-08-07T02:39:16.344Z,1.70
2022-08-07T02:41:50.631Z,1.70
2022-08-07T02:44:21.586Z,1.70
2022-08-07T02:46:52.688Z,2.17
2022-08-07T02:49:55.631Z,1.50
2022-08-07T02:52:12.983Z,1.50
2022-08-07T02:54:42.937Z,2.53
2022-08-07T02:57:14.299Z,2.10
2022-08-07T02:59:54.871Z,1.97
2022-08-07T03:02:28.171Z,2.05
2022-08-07T03:04:56.497Z,1.42
2022-08-07T03:08:04.533Z,1.55
2022-08-07T03:10:14.283Z,1.27
2022-08-07T03:12:42.096Z,1.60
2022-08-07T03:15:12.108Z,2.40
2022-08-07T03:17:53.785Z,2.08
2022-08-07T03:20:23.367Z,2.00
2022-08-07T03:22:51.802Z,1.40
2022-08-07T03:25:21.115Z,1.90
2022-08-07T03:27:59.698Z,2.03
2022-08-07T03:30:37.280Z,2.00
2022-08-07T03:33:07.968Z,3.75
2022-08-07T03:35:44.057Z,1.60
2022-08-07T03:38:21.308Z,1.43
2022-08-07T03:40:57.778Z,1.67
2022-08-07T03:43:26.602Z,2.92
2022-08-07T03:45:53.840Z,1.27
2022-08-07T03:48:20.968Z,1.85
2022-08-07T03:50:55.643Z,1.80
2022-08-07T03:53:49.936Z,2.22
2022-08-07T03:56:13.721Z,2.22
2022-08-07T03:59:13.036Z,1.83
2022-08-07T04:01:30.285Z,2.13
2022-08-07T04:03:59.594Z,2.40
2022-08-07T04:06:37.099Z,1.75
2022-08-07T04:09:05.830Z,2.08
2022-08-07T04:12:27.824Z,1.88
2022-08-07T04:14:37.865Z,1.55
2022-08-07T04:17:20.098Z,2.03
2022-08-07T04:19:52.188Z,1.50
2022-08-07T04:22:23.689Z,2.45
2022-08-07T04:24:56.084Z,1.50
2022-08-07T04:27:26.673Z,2.17
2022-08-07T04:30:01.549Z,3.33
2022-08-07T04:32:34.603Z,3.22
2022-08-07T04:35:05.599Z,2.28
2022-08-07T04:37:52.773Z,2.13
2022-08-07T04:40:21.187Z,2.50
2022-08-07T04:42:52.388Z,2.17
2022-08-07T04:45:44.405Z,1.70
2022-08-07T04:48:17.647Z,2.60
2022-08-07T04:50:56.313Z,3.47
2022-08-07T04:54:05.487Z,1.63
2022-08-07T04:58:16.494Z,2.07
2022-08-07T05:00:10.703Z,2.60
2022-08-07T05:02:55.587Z,2.40
2022-08-07T05:05:53.856Z,4.15
2022-08-07T05:08:59.243Z,2.88
2022-08-07T05:11:19.337Z,2.00
2022-08-07T05:14:52.971Z,2.13
2022-08-07T05:16:59.304Z,3.08
2022-08-07T05:19:44.053Z,3.25
2022-08-07T05:22:13.691Z,3.17
2022-08-07T05:24:57.307Z,4.90
2022-08-07T05:28:16.246Z,2.50
2022-08-07T05:30:25.040Z,3.28
2022-08-07T05:32:59.713Z,3.70
2022-08-07T05:35:33.362Z,2.60
2022-08-07T05:38:09.875Z,3.10
2022-08-07T05:40:42.783Z,1.90
2022-08-07T05:43:18.744Z,1.90
2022-08-07T05:45:48.361Z,2.10
2022-08-07T05:48:16.534Z,2.47
2022-08-07T05:50:43.676Z,2.70
2022-08-07T05:54:09.509Z,2.42
2022-08-07T05:56:02.206Z,2.05
2022-08-07T05:58:36.119Z,2.60
2022-08-07T06:01:05.941Z,6.00
2022-08-07T06:03:57.113Z,2.87
2022-08-07T06:06:29.843Z,2.95
2022-08-07T06:09:01.187Z,4.72
2022-08-07T06:11:33.224Z,4.72
2022-08-07T06:14:12.257Z,3.78
2022-08-07T06:16:50.151Z,3.37
2022-08-07T06:19:52.129Z,6.65
2022-08-07T06:22:14.941Z,4.57
2022-08-07T06:24:57.996Z,6.55
2022-08-07T06:27:43.960Z,4.60
2022-08-07T06:30:35.192Z,4.67
2022-08-07T06:33:02.378Z,5.13
2022-08-07T06:35:45.692Z,5.18
2022-08-07T06:38:20.157Z,7.03
2022-08-07T06:40:51.937Z,6.22
2022-08-07T06:43:23.472Z,6.97
2022-08-07T06:45:51.598Z,6.13
2022-08-07T06:48:25.262Z,7.85
2022-08-07T06:50:54.680Z,4.50
2022-08-07T06:54:12.055Z,4.95
2022-08-07T06:56:14.820Z,7.70
2022-08-07T07:00:16.839Z,4.78
2022-08-07T07:01:41.960Z,4.72
2022-08-07T07:04:27.657Z,5.28
2022-08-07T07:07:00.588Z,5.28
2022-08-07T07:09:30.950Z,3.93
2022-08-07T07:12:21.626Z,4.75
2022-08-07T07:15:24.010Z,4.43
2022-08-07T07:17:58.060Z,4.40
2022-08-07T07:20:33.902Z,6.20
2022-08-07T07:24:10.845Z,4.20
2022-08-07T07:26:31.225Z,4.75
2022-08-07T07:29:39.180Z,4.50
2022-08-07T07:31:48.178Z,5.18
2022-08-07T07:34:22.377Z,7.40
2022-08-07T07:37:05.516Z,3.60
2022-08-07T07:39:52.528Z,3.67
2022-08-07T07:42:32.930Z,3.63
2022-08-07T07:45:05.808Z,4.43
2022-08-07T07:47:52.306Z,2.50
2022-08-07T07:50:35.391Z,3.27
2022-08-07T07:53:20.168Z,3.00
2022-08-07T07:55:57.463Z,4.05
2022-08-07T07:58:29.438Z,3.67
2022-08-07T08:00:58.598Z,2.72
2022-08-07T08:04:06.011Z,2.17
2022-08-07T08:06:16.354Z,2.70
2022-08-07T08:08:44.324Z,3.70
2022-08-07T08:11:16.560Z,2.97
2022-08-07T08:13:58.684Z,3.72
2022-08-07T08:16:38.907Z,4.27
2022-08-07T08:19:18.215Z,4.70
2022-08-07T08:22:18.983Z,3.80
2022-08-07T08:25:24.570Z,3.95
2022-08-07T08:28:03.684Z,2.92
2022-08-07T08:30:34.566Z,3.67
2022-08-07T08:33:05.417Z,3.50
2022-08-07T08:35:46.989Z,3.55
2022-08-07T08:38:20.773Z,2.38
2022-08-07T08:41:05.479Z,2.72
2022-08-07T08:43:42.221Z,3.70
2022-08-07T08:46:49.218Z,2.30
2022-08-07T08:49:46.902Z,2.47
2022-08-07T08:52:36.025Z,2.08
2022-08-07T08:55:55.064Z,4.30
2022-08-07T08:58:31.199Z,2.87
2022-08-07T09:01:14.572Z,2.55
2022-08-07T09:03:52.812Z,3.90
2022-08-07T09:06:47.688Z,2.45
2022-08-07T09:09:43.670Z,2.42
2022-08-07T09:12:31.796Z,2.60
2022-08-07T09:16:23.872Z,2.38
2022-08-07T09:18:37.185Z,2.22
2022-08-07T09:21:33.955Z,1.52
2022-08-07T09:24:55.487Z,3.17
2022-08-07T09:27:28.981Z,2.00
2022-08-07T09:30:08.672Z,2.60
2022-08-07T09:33:05.329Z,2.58
2022-08-07T09:36:03.504Z,2.03
2022-08-07T09:38:50.209Z,1.58
2022-08-07T09:41:59.071Z,1.70
2022-08-07T09:44:58.483Z,6.43
2022-08-07T09:48:07.575Z,3.08
2022-08-07T09:51:14.735Z,2.10
2022-08-07T09:54:02.556Z,1.95
2022-08-07T09:57:12.871Z,2.63
2022-08-07T10:00:00.774Z,2.17
2022-08-07T10:02:34.165Z,2.28
2022-08-07T10:05:29.801Z,1.55
2022-08-07T10:08:34.405Z,1.65
2022-08-07T10:12:01.459Z,2.87
2022-08-07T10:14:31.097Z,1.70
2022-08-07T10:18:00.718Z,1.70
2022-08-07T10:20:30.565Z,1.80
2022-08-07T10:24:06.702Z,1.95
2022-08-07T10:26:55.507Z,1.77
2022-08-07T10:29:51.779Z,3.15
2022-08-07T10:32:53.050Z,2.47
2022-08-07T10:35:55.673Z,3.53
2022-08-07T10:38:49.208Z,1.55
2022-08-07T10:41:47.392Z,1.40
2022-08-07T10:44:28.406Z,1.98
2022-08-07T10:47:53.830Z,2.10
2022-08-07T10:50:50.282Z,1.38
2022-08-07T10:53:28.256Z,1.10
2022-08-07T10:56:31.072Z,1.60
2022-08-07T10:59:21.222Z,1.52
2022-08-07T11:02:05.515Z,3.20
2022-08-07T11:04:51.270Z,1.67
2022-08-07T11:07:58.582Z,1.45
2022-08-07T11:10:34.237Z,1.30
2022-08-07T11:14:44.914Z,1.30
2022-08-07T11:16:19.768Z,1.35
2022-08-07T11:19:03.749Z,1.92
2022-08-07T11:22:02.195Z,1.63
2022-08-07T11:25:06.449Z,1.40
2022-08-07T11:28:01.292Z,2.83
2022-08-07T11:30:55.982Z,1.50
2022-08-07T11:33:59.297Z,2.97
2022-08-07T11:36:31.703Z,1.95
2022-08-07T11:39:20.266Z,1.23
2022-08-07T11:42:16.967Z,1.77
2022-08-07T11:45:12.277Z,1.50
2022-08-07T11:48:02.664Z,1.90
2022-08-07T11:50:57.918Z,3.50
2022-08-07T11:53:43.199Z,1.20
2022-08-07T11:56:56.217Z,1.08
2022-08-07T12:00:11.592Z,1.65
2022-08-07T12:03:04.800Z,1.55
2022-08-07T12:05:50.161Z,1.13
2022-08-07T12:08:34.508Z,2.70
2022-08-07T12:11:21.505Z,1.20
2022-08-07T12:14:08.448Z,1.63
2022-08-07T12:16:42.725Z,1.35
2022-08-07T12:19:22.091Z,2.47
2022-08-07T12:22:37.096Z,2.07
2022-08-07T12:26:05.653Z,1.33
2022-08-07T12:28:31.326Z,2.20
2022-08-07T12:31:11.745Z,1.63
2022-08-07T12:33:56.242Z,2.50
2022-08-07T12:36:33.440Z,1.73
2022-08-07T12:39:03.505Z,2.63
2022-08-07T12:41:53.874Z,2.25
2022-08-07T12:44:21.831Z,2.42
2022-08-07T12:47:03.707Z,1.95
2022-08-07T12:49:53.002Z,1.77
2022-08-07T12:52:36.707Z,2.83
2022-08-07T12:55:41.171Z,2.28
2022-08-07T12:58:21.576Z,2.35
2022-08-07T13:01:03.602Z,1.65
2022-08-07T13:04:05.315Z,2.47
2022-08-07T13:07:00.214Z,4.28
2022-08-07T13:10:19.471Z,1.42
2022-08-07T13:13:48.408Z,1.80
2022-08-07T13:16:22.887Z,2.33
2022-08-07T13:19:35.075Z,1.67
2022-08-07T13:22:19.706Z,2.28
2022-08-07T13:25:00.484Z,1.70
2022-08-07T13:28:12.706Z,2.08
2022-08-07T13:30:39.886Z,1.23
2022-08-07T13:34:33.179Z,1.40
2022-08-07T13:36:28.750Z,1.95
2022-08-07T13:39:13.026Z,2.47
2022-08-07T13:41:57.317Z,2.53
2022-08-07T13:44:34.665Z,2.38
2022-08-07T13:47:09.145Z,2.30
2022-08-07T13:50:34.994Z,3.33
2022-08-07T13:52:39.674Z,2.13
2022-08-07T13:55:19.467Z,2.67
2022-08-07T13:58:28.212Z,1.88
2022-08-07T14:01:11.091Z,2.67
2022-08-07T14:04:07.541Z,3.42
2022-08-07T14:06:40.522Z,2.10
2022-08-07T14:10:02.693Z,1.60
2022-08-07T14:12:49.153Z,1.83
2022-08-07T14:15:22.376Z,2.00
2022-08-07T14:18:23.663Z,1.10
2022-08-07T14:20:49.301Z,3.17
2022-08-07T14:23:58.908Z,1.25
2022-08-07T14:26:28.132Z,3.13
2022-08-07T14:29:08.527Z,1.90
2022-08-07T14:31:56.050Z,1.60
2022-08-07T14:34:30.120Z,2.42
2022-08-07T14:37:03.065Z,2.22
2022-08-07T14:40:17.344Z,7.72
2022-08-07T14:43:55.791Z,3.53
2022-08-07T14:48:19.619Z,2.30
2022-08-07T14:50:53.470Z,1.40
2022-08-07T14:54:05.668Z,2.05
2022-08-07T14:56:13.096Z,2.37
2022-08-07T14:58:44.415Z,1.50
2022-08-07T15:01:22.735Z,1.70
2022-08-07T15:06:39.978Z,1.23
2022-08-07T15:09:59.810Z,1.60
2022-08-07T15:12:09.247Z,2.08
2022-08-07T15:14:56.054Z,1.90
2022-08-07T15:25:16.379Z,3.27
2022-08-07T15:26:20.713Z,1.30
2022-08-07T15:32:01.396Z,2.47
2022-08-07T15:34:26.086Z,2.15
2022-08-07T15:37:03.841Z,1.80
2022-08-07T15:39:56.334Z,1.75
2022-08-07T15:45:24.106Z,3.30
2022-08-07T15:48:12.680Z,7.88
2022-08-07T15:51:08.020Z,14.27
2022-08-07T15:53:52.807Z,18.23
2022-08-07T15:56:29.514Z,6.32
2022-08-07T15:59:04.180Z,7.32
2022-08-07T16:01:39.262Z,4.95
2022-08-07T16:04:15.525Z,6.97
2022-08-07T16:06:54.704Z,4.05
2022-08-07T16:09:41.190Z,3.80
2022-08-07T16:12:39.039Z,3.15
2022-08-07T16:15:54.619Z,3.20
2022-08-07T16:18:49.506Z,2.77
2022-08-07T16:21:56.926Z,2.53
2022-08-07T16:24:34.275Z,3.78
2022-08-07T16:27:19.642Z,4.53
2022-08-07T16:30:11.522Z,5.18
2022-08-07T16:32:54.891Z,7.30
2022-08-07T16:35:56.954Z,3.80
2022-08-07T16:41:48.666Z,4.47
2022-08-07T16:45:14.143Z,4.00
2022-08-07T16:47:51.407Z,2.50
2022-08-07T16:50:52.554Z,2.97
2022-08-07T16:54:02.945Z,2.80
2022-08-07T16:56:37.502Z,2.60
2022-08-07T16:59:47.018Z,2.25
2022-08-07T17:02:52.919Z,3.33
2022-08-07T17:06:19.003Z,5.20
2022-08-07T17:09:14.141Z,4.68
2022-08-07T17:12:04.999Z,4.70
2022-08-07T17:14:53.459Z,3.38
2022-08-07T17:17:24.058Z,2.30
2022-08-07T17:20:01.487Z,4.05
2022-08-07T17:22:42.455Z,6.25
2022-08-07T17:25:47.311Z,3.10
2022-08-07T17:28:19.993Z,2.28
2022-08-07T17:31:15.941Z,2.60
2022-08-07T17:34:15.428Z,3.75
2022-08-07T17:36:57.792Z,3.25
2022-08-07T17:39:58.413Z,3.75
2022-08-07T17:42:59.853Z,2.03
2022-08-07T17:45:35.276Z,2.60
2022-08-07T17:48:31.139Z,3.40
2022-08-07T17:51:16.288Z,2.70
2022-08-07T17:54:40.101Z,3.53
2022-08-07T17:57:56.411Z,5.00
2022-08-07T18:00:34.691Z,2.90
2022-08-07T18:03:54.027Z,6.53
2022-08-07T18:06:38.624Z,3.90
2022-08-07T18:09:08.635Z,3.22
2022-08-07T18:12:11.909Z,2.95
2022-08-07T18:14:45.110Z,2.30
2022-08-07T18:18:46.070Z,2.75
2022-08-07T18:21:02.913Z,5.95
2022-08-07T18:23:50.764Z,3.03
2022-08-07T18:26:59.771Z,4.70
2022-08-07T18:30:05.654Z,2.73
2022-08-07T18:33:11.913Z,2.53
2022-08-07T18:35:55.762Z,2.45
2022-08-07T18:38:55.690Z,3.55
2022-08-07T18:41:53.126Z,2.10
2022-08-07T18:45:39.962Z,3.13
2022-08-07T18:47:44.808Z,2.47
2022-08-07T18:50:44.116Z,3.65
2022-08-07T18:53:39.380Z,3.53
2022-08-07T18:56:30.729Z,4.45
2022-08-07T18:59:47.341Z,4.57
2022-08-07T19:02:32.811Z,4.40
2022-08-07T19:05:20.483Z,3.33
2022-08-07T19:08:03.950Z,2.47
2022-08-07T19:10:51.944Z,3.95
2022-08-07T19:13:46.312Z,4.30
2022-08-07T19:17:08.032Z,3.83
2022-08-07T19:20:06.461Z,3.38
2022-08-07T19:23:18.279Z,2.40
2022-08-07T19:26:25.249Z,5.03
2022-08-07T19:30:53.799Z,2.73
2022-08-07T19:31:59.722Z,3.30
2022-08-07T19:34:34.319Z,3.72
2022-08-07T19:37:10.035Z,4.35
2022-08-07T19:39:56.990Z,3.60
2022-08-07T19:42:26.962Z,3.70
2022-08-07T19:45:08.617Z,2.15
2022-08-07T19:47:42.072Z,3.03
2022-08-07T19:50:43.174Z,4.05
2022-08-07T19:52:58.903Z,3.85
2022-08-07T19:55:56.905Z,3.90
2022-08-07T19:58:28.409Z,2.28
2022-08-07T20:00:57.441Z,3.17
2022-08-07T20:03:35.646Z,3.53
2022-08-07T20:06:06.144Z,4.22
2022-08-07T20:08:35.961Z,5.13
2022-08-07T20:11:09.875Z,4.80
2022-08-07T20:13:47.596Z,2.63
2022-08-07T20:16:35.641Z,3.83
2022-08-07T20:19:10.393Z,5.07
2022-08-07T20:21:47.410Z,3.53
2022-08-07T20:24:28.544Z,3.50
2022-08-07T20:27:01.869Z,4.47
2022-08-07T20:29:49.234Z,3.08
2022-08-07T20:32:41.683Z,3.30
2022-08-07T20:35:21.980Z,2.90
2022-08-07T20:37:58.740Z,3.20
2022-08-07T20:40:33.149Z,4.38
2022-08-07T20:43:03.785Z,3.70
2022-08-07T20:46:25.833Z,4.93
2022-08-07T20:48:34.155Z,5.03
2022-08-07T20:51:04.069Z,3.78
2022-08-07T20:54:03.822Z,5.10
2022-08-07T20:56:30.627Z,4.38
2022-08-07T20:59:03.530Z,5.90
2022-08-07T21:01:45.402Z,3.23
2022-08-07T21:04:25.766Z,3.78
2022-08-07T21:06:58.459Z,3.70
2022-08-07T21:09:35.571Z,3.30
2022-08-07T21:12:28.788Z,5.43
2022-08-07T21:15:01.202Z,2.50
2022-08-07T21:18:02.258Z,4.03
2022-08-07T21:20:29.388Z,4.25
2022-08-07T21:22:59.175Z,4.45
2022-08-07T21:26:01.430Z,3.25
2022-08-07T21:28:49.010Z,5.50
2022-08-07T21:32:47.289Z,5.55
2022-08-07T21:35:16.322Z,6.28
2022-08-07T21:38:21.555Z,5.05
2022-08-07T21:41:10.969Z,3.72
2022-08-07T21:44:01.719Z,5.47
2022-08-07T21:46:46.433Z,4.00
2022-08-07T21:49:40.585Z,4.00
2022-08-07T21:52:58.435Z,4.18
2022-08-07T21:55:31.066Z,5.55
2022-08-07T21:58:29.992Z,5.87
2022-08-07T22:01:02.980Z,4.90
2022-08-07T22:03:40.309Z,4.95
2022-08-07T22:06:30.212Z,4.07
2022-08-07T22:09:02.146Z,5.43
2022-08-07T22:12:05.071Z,5.70
2022-08-07T22:14:36.447Z,4.75
2022-08-07T22:17:05.911Z,4.20
2022-08-07T22:19:41.497Z,6.20
2022-08-07T22:22:27.853Z,5.15
2022-08-07T22:25:36.211Z,5.40
2022-08-07T22:28:29.757Z,4.78
2022-08-07T22:31:05.242Z,6.05
2022-08-07T22:33:56.607Z,5.35
2022-08-07T22:36:58.879Z,4.38
2022-08-07T22:39:52.511Z,3.30
2022-08-07T22:42:29.323Z,4.63
2022-08-07T22:45:02.329Z,3.72
2022-08-07T22:47:44.235Z,4.10
2022-08-07T22:50:29.150Z,4.35
2022-08-07T22:54:08.202Z,5.60
2022-08-07T22:56:28.719Z,4.32
2022-08-07T22:59:26.824Z,4.75
2022-08-07T23:02:33.542Z,5.30
2022-08-07T23:06:08.625Z,3.35
2022-08-07T23:08:22.286Z,3.43
2022-08-07T23:11:14.698Z,3.65
2022-08-07T23:14:10.827Z,5.38
2022-08-07T23:17:03.064Z,3.28
2022-08-07T23:20:14.464Z,3.30
2022-08-07T23:22:45.204Z,3.70
2022-08-07T23:25:29.484Z,4.53
2022-08-07T23:28:28.530Z,3.58
2022-08-07T23:31:18.786Z,4.15
2022-08-07T23:34:37.895Z,4.40
2022-08-07T23:37:35.033Z,4.27
2022-08-07T23:40:34.963Z,3.70
2022-08-07T23:43:38.142Z,5.20
2022-08-07T23:46:11.806Z,3.33
2022-08-07T23:49:15.690Z,4.13
2022-08-07T23:53:01.917Z,4.37
2022-08-07T23:54:44.342Z,3.63
2022-08-07T23:57:30.870Z,3.00
